Pagrindinis puslapis
METAR-TAF:

METAR-TAF

Oro uostai :

Chabarovskas, Rusija

platuma: 48-31N, ilguma: 135-10E, Aukštis: 72 m

Dabartinis oras

Ataskaita buvo paskelbta 32 minutes, ne 13:30 UTC
Vėjas 16 kt iš Vakarų/Pietvakarių
Temperatūra 22°C
Drėgmė 43%
Slėgis 1007 hPa
Matomumas 10 km arba daugiau
nėra debesų žemiau 1500 m ir nėra kamuolinių lietaus debesų

METAR: UHHH 291330Z 25008MPS CAVOK 22/09 Q1007 R23L/090060 NOSIG RMK QFE749/0999

Laikas: 00:02 (14:02 UTC)

Prognozė

Ataskaita buvo paskelbta 3 valandos ir 14 minutes, ne 10:48 UTC
Prognozė galioja nuo 29 metu 12 UTC su 30 metu 18 UTC
Vėjas 14 kt iš Vakarų/Pietvakarių
Matomumas 10 km arba daugiau
nėra debesų žemiau 1500 m ir nėra kamuolinių lietaus debesų
Laikinai
nuo 29 metu 23 UTC su 30 metu 09 UTC
Vėjas 19 kt iš Vakarų/Pietvakarių su gūsio iki 29 kt

TAF: UHHH 291048Z 2912/3018 24007MPS CAVOK TEMPO 2923/3009 25010G15MPS

Orai ataskaitas ir orų prognozės (METAR, TAF).

turimą stotys yra geltonos ir raudonos taškus žemėlapyje.

Perkelti pele per norėdami pamatyti stoties vardą.

Tada spustelėkite, norėdami matyti oro stebėjimo ir prognozės.

Norėdami pakeisti žemėlapį: spustelėkite ant žalios mygtukų su juodo kryžiaus žemyn,; žalią mygtuką su brūkšneliu, jei norite nutolinti; arba žalių rodyklių gretimoms žemėlapius.


METAR-TAF: